Time;durP1;ratioP1;P1;durP2;ratioP2;P2;SDS_P1;SDS_P2;PMS_P1;PMS_P2;Temp;Humidity;BMP_temperature;BMP_pressure;BME280_temperature;BME280_humidity;BME280_pressure;Samples;Min_cycle;Max_cycle;Signal;HPM_P1;HPM_P2
2021/12/31 00:00:45;;;;;;;11.13;5.97;;;14.80;99.90;;;15.05;94.81;101608.00;5093706;28;20142;-70
2021/12/31 00:03:14;;;;;;;16.52;6.30;;;14.80;99.90;;;14.94;94.98;101599.25;5112054;28;20035;-70
2021/12/31 00:05:42;;;;;;;12.50;6.80;;;14.80;99.90;;;14.92;95.51;101607.25;5112092;28;20043;-70
2021/12/31 00:08:12;;;;;;;11.25;6.65;;;14.70;99.90;;;14.84;96.31;101614.44;5112006;28;20438;-70
2021/12/31 00:10:40;;;;;;;13.43;6.47;;;14.60;99.90;;;14.76;95.99;101589.66;5112117;28;20105;-70
2021/12/31 00:13:09;;;;;;;15.05;6.80;;;14.60;99.90;;;14.84;96.10;101614.44;5112202;28;20051;-70
2021/12/31 00:15:37;;;;;;;10.63;6.78;;;14.60;99.90;;;14.86;96.47;101612.66;5112020;28;20079;-71
2021/12/31 00:18:05;;;;;;;12.20;6.88;;;14.60;99.90;;;14.87;96.54;101606.41;5111773;28;20100;-70
2021/12/31 00:20:34;;;;;;;13.52;6.72;;;14.60;99.90;;;14.91;96.63;101604.59;5111899;28;20067;-71
2021/12/31 00:23:05;;;;;;;13.05;6.32;;;14.60;99.90;;;14.84;96.61;101598.47;5111794;28;20066;-72
2021/12/31 00:25:38;;;;;;;9.65;6.57;;;14.60;99.90;;;14.79;96.89;101599.41;5111824;28;20082;-71
2021/12/31 00:28:07;;;;;;;11.25;7.25;;;14.60;99.90;;;14.74;96.87;101585.22;5115650;28;20031;-71
2021/12/31 00:30:37;;;;;;;12.65;6.53;;;14.60;99.90;;;14.93;96.65;101605.47;5116277;28;20067;-71
2021/12/31 00:33:08;;;;;;;8.35;6.05;;;14.60;99.90;;;14.94;96.84;101604.56;5115819;28;20446;-71
2021/12/31 00:35:38;;;;;;;10.75;7.38;;;14.70;99.90;;;14.90;96.59;101585.09;5097676;28;20108;-71
2021/12/31 00:38:08;;;;;;;;;;;14.70;99.90;;;14.97;96.34;101593.88;5116094;28;20055;-71
2021/12/31 00:40:38;;;;;;;10.25;6.53;;;14.70;99.90;;;15.05;96.08;101584.00;5115661;28;19920;-71
2021/12/31 00:43:07;;;;;;;11.60;7.65;;;14.80;99.90;;;14.95;95.75;101601.00;5115551;28;20081;-71
2021/12/31 00:45:39;;;;;;;15.80;7.93;;;14.70;99.90;;;14.92;96.37;101601.94;5097336;28;20081;-71
2021/12/31 00:48:10;;;;;;;14.00;6.85;;;14.70;99.90;;;14.96;96.42;101595.66;5097394;28;20393;-71
2021/12/31 00:50:40;;;;;;;14.10;7.68;;;14.70;99.90;;;14.83;96.22;101595.78;5115446;28;20043;-70
2021/12/31 00:53:08;;;;;;;11.85;7.30;;;14.70;99.90;;;14.88;96.43;101610.84;5115398;28;20048;-70
2021/12/31 00:55:38;;;;;;;13.75;7.57;;;14.70;99.90;;;14.96;96.53;101603.63;5115907;28;20118;-71
2021/12/31 00:58:07;;;;;;;10.85;6.60;;;14.70;99.90;;;14.97;96.20;101610.75;5115294;28;20048;-71
2021/12/31 01:00:36;;;;;;;12.52;6.70;;;14.70;99.90;;;15.00;96.18;101599.19;5115133;28;20104;-70
2021/12/31 01:03:05;;;;;;;12.73;7.13;;;14.70;99.90;;;14.45;96.24;101517.19;5115363;28;20048;-70
2021/12/31 01:05:34;;;;;;;13.40;7.20;;;14.70;99.90;;;14.91;96.44;101593.94;5115324;28;20070;-71
2021/12/31 01:08:02;;;;;;;13.18;6.38;;;14.70;99.90;;;14.95;96.41;101601.00;5115521;28;20449;-71
2021/12/31 01:10:30;;;;;;;12.52;7.05;;;14.70;99.90;;;14.89;96.47;101593.94;5096893;28;20051;-70
2021/12/31 01:13:07;;;;;;;13.70;7.22;;;14.70;99.90;;;14.97;96.22;101610.75;5114768;28;20039;-70
2021/12/31 01:15:39;;;;;;;11.13;6.85;;;14.70;99.90;;;14.82;96.08;101586.03;5115355;28;20100;-70
2021/12/31 01:18:22;;;;;;;9.57;6.10;;;14.70;99.90;;;14.87;96.08;101587.75;5114760;28;20093;-71
2021/12/31 01:20:50;;;;;;;15.00;7.18;;;14.70;99.90;;;14.98;95.90;101603.66;5114719;28;20040;-71
2021/12/31 01:23:19;;;;;;;12.73;6.63;;;14.70;99.90;;;15.01;95.68;101607.16;5114527;28;20047;-71
2021/12/31 01:25:47;;;;;;;13.27;6.82;;;14.70;99.90;;;15.00;95.88;101605.38;5114644;28;20058;-71
2021/12/31 01:28:19;;;;;;;9.25;6.22;;;14.70;99.90;;;15.01;95.42;101590.28;5114504;28;20119;-71
2021/12/31 01:30:47;;;;;;;9.85;6.22;;;14.80;99.90;;;15.01;95.61;101606.25;5114624;28;20039;-70
2021/12/31 01:33:15;;;;;;;12.02;6.32;;;14.70;99.90;;;15.01;95.70;101606.25;5114503;28;20108;-70
2021/12/31 01:35:44;;;;;;;10.00;6.18;;;14.80;99.90;;;15.05;95.37;101603.56;5114476;28;20077;-71
2021/12/31 01:38:12;;;;;;;10.25;6.35;;;14.80;99.90;;;15.07;95.27;101591.09;5113958;28;20046;-70
2021/12/31 01:40:41;;;;;;;11.05;6.40;;;14.80;99.90;;;15.01;95.25;101604.50;5114450;28;20116;-71
2021/12/31 01:43:11;;;;;;;11.23;5.95;;;14.80;99.90;;;14.94;95.55;101607.25;5114282;28;20166;-71
2021/12/31 01:45:46;;;;;;;10.02;6.30;;;14.80;99.90;;;14.97;95.50;101610.75;5114425;28;20043;-71
2021/12/31 01:48:24;;;;;;;10.38;5.93;;;14.70;99.90;;;14.96;95.37;101608.97;5096156;28;20101;-70
2021/12/31 01:50:53;;;;;;;9.93;6.75;;;14.80;99.90;;;15.12;95.11;101612.34;5114166;28;20108;-70
2021/12/31 01:53:23;;;;;;;14.25;6.10;;;14.80;99.90;;;15.09;94.81;101607.97;5113958;28;20083;-70
2021/12/31 01:55:52;;;;;;;11.98;6.43;;;14.80;99.90;;;15.15;94.43;101620.31;5114262;28;20067;-70
2021/12/31 01:58:24;;;;;;;13.95;6.78;;;14.90;99.90;;;14.47;94.51;101506.53;5114106;28;20096;-71
2021/12/31 02:00:55;;;;;;;10.32;6.43;;;14.80;99.90;;;14.89;94.93;101596.63;5113862;28;20056;-71
2021/12/31 02:03:24;;;;;;;8.52;5.90;;;14.80;99.90;;;14.97;95.29;101609.84;5114284;28;20044;-70
2021/12/31 02:05:53;;;;;;;11.18;6.43;;;14.70;99.90;;;15.07;94.95;101612.41;5113816;28;20054;-70
2021/12/31 02:08:21;;;;;;;10.93;5.78;;;14.80;99.90;;;15.01;94.72;101604.50;5114045;28;20131;-71
2021/12/31 02:10:51;;;;;;;10.43;5.88;;;14.80;99.90;;;15.04;94.56;101612.44;5113676;28;20116;-71
2021/12/31 02:13:20;;;;;;;13.48;6.00;;;14.80;99.90;;;15.02;94.63;101592.91;5113543;28;20125;-71
2021/12/31 02:15:50;;;;;;;9.57;6.07;;;14.80;99.90;;;14.98;94.50;101599.19;5114202;28;20051;-71
2021/12/31 02:18:20;;;;;;;9.40;6.20;;;14.80;99.90;;;15.04;94.51;101596.44;5114138;28;20073;-71
2021/12/31 02:20:50;;;;;;;9.90;6.40;;;14.80;99.90;;;15.04;94.70;101607.09;5113592;28;20043;-71
2021/12/31 02:23:23;;;;;;;10.93;5.78;;;14.80;99.90;;;14.98;94.90;101593.84;5113517;28;20787;-70
2021/12/31 02:25:55;;;;;;;9.18;5.75;;;14.70;99.90;;;15.00;95.01;101609.84;5113411;28;20116;-71
2021/12/31 02:28:23;;;;;;;10.02;5.93;;;14.80;99.90;;;15.02;94.92;101595.56;5113648;28;20113;-71
2021/12/31 02:30:54;;;;;;;9.13;5.55;;;14.70;99.90;;;15.00;94.99;101591.19;5113717;28;20070;-70
2021/12/31 02:33:23;;;;;;;11.20;6.53;;;14.80;99.90;;;15.00;94.84;101594.72;5113591;28;20097;-70
2021/12/31 02:35:53;;;;;;;11.30;5.93;;;14.80;99.90;;;15.02;94.82;101600.91;5113278;28;20082;-71
2021/12/31 02:38:21;;;;;;;9.00;5.32;;;14.80;99.90;;;15.00;94.83;101600.03;5113569;28;20043;-71
2021/12/31 02:40:50;;;;;;;13.57;6.97;;;14.80;99.90;;;15.05;94.96;101598.22;5113769;28;20116;-70
2021/12/31 02:43:18;;;;;;;10.50;5.55;;;14.80;99.90;;;15.01;94.75;101599.16;5113095;28;20117;-71
2021/12/31 02:45:47;;;;;;;9.48;6.10;;;14.80;99.90;;;14.39;94.43;101481.75;5095106;28;20040;-71
2021/12/31 02:48:24;;;;;;;14.75;6.43;;;14.80;99.90;;;15.03;94.67;101602.69;5112954;28;20051;-72
2021/12/31 02:50:57;;;;;;;10.48;6.25;;;14.80;99.90;;;15.07;94.43;101600.88;5112824;28;20443;-71
2021/12/31 02:53:33;;;;;;;13.52;5.95;;;14.90;99.90;;;15.00;94.75;101601.84;5113119;28;20838;-70
2021/12/31 02:56:05;;;;;;;10.80;5.72;;;14.80;99.90;;;15.03;94.68;101602.69;5113341;28;20039;-72
2021/12/31 02:58:34;;;;;;;9.88;5.82;;;14.80;99.90;;;14.87;94.42;101565.56;5113327;28;20052;-71
2021/12/31 03:01:04;;;;;;;11.90;5.90;;;14.80;99.90;;;15.02;94.59;101608.91;5112907;28;20194;-71
2021/12/31 03:03:35;;;;;;;9.07;6.07;;;14.80;99.90;;;14.95;94.52;101599.22;5094830;28;20048;-71
2021/12/31 03:06:05;;;;;;;12.57;6.30;;;14.70;99.90;;;14.97;94.61;101608.09;5112949;28;20044;-71
2021/12/31 03:08:40;;;;;;;10.47;5.67;;;14.70;99.90;;;14.96;94.46;101597.44;5113414;28;20044;-71
2021/12/31 03:11:10;;;;;;;11.27;6.18;;;14.70;99.90;;;14.99;94.37;101579.63;5112913;28;20847;-71
2021/12/31 03:13:40;;;;;;;10.88;6.55;;;14.70;99.90;;;14.87;94.43;101592.19;5112877;28;20070;-72
2021/12/31 03:16:09;;;;;;;13.05;6.03;;;14.70;99.90;;;14.96;94.50;101569.00;5113154;28;20101;-71
2021/12/31 03:18:38;;;;;;;9.13;6.15;;;14.70;99.90;;;14.96;94.38;101565.47;5112838;28;20513;-71
2021/12/31 03:21:12;;;;;;;11.30;5.80;;;14.70;99.90;;;14.97;94.28;101564.56;5112715;28;20049;-70
2021/12/31 03:23:40;;;;;;;11.68;5.95;;;14.70;99.90;;;14.99;94.00;101568.09;5112686;28;20450;-70
2021/12/31 03:26:09;;;;;;;9.13;6.07;;;14.70;99.90;;;14.90;94.35;101553.13;5112932;28;20423;-71
2021/12/31 03:28:37;;;;;;;10.82;5.97;;;14.70;99.90;;;14.90;94.40;101576.19;5094526;28;20134;-71
2021/12/31 03:31:06;;;;;;;11.80;6.20;;;14.70;99.90;;;14.86;94.41;101578.03;5112615;28;20454;-71
2021/12/31 03:33:34;;;;;;;8.50;5.88;;;14.70;99.90;;;14.92;94.25;101580.63;5112401;28;20052;-72
2021/12/31 03:36:03;;;;;;;10.82;6.30;;;14.70;99.90;;;14.94;94.09;101581.44;5112740;28;20039;-70
2021/12/31 03:38:33;;;;;;;10.63;5.45;;;14.70;99.90;;;14.75;94.07;101550.59;5112619;28;20076;-71
2021/12/31 03:41:01;;;;;;;10.80;5.30;;;14.60;99.90;;;14.84;94.16;101595.78;5112730;28;20040;-71
2021/12/31 03:43:29;;;;;;;11.90;5.88;;;14.60;99.90;;;14.77;93.94;101591.41;5112528;28;20299;-70
2021/12/31 03:45:58;;;;;;;7.93;5.38;;;14.60;99.90;;;14.90;93.64;101585.09;5112545;28;20109;-71
2021/12/31 03:48:27;;;;;;;11.95;5.63;;;14.60;99.90;;;14.93;93.73;101606.34;5094383;28;20067;-71
2021/12/31 03:50:55;;;;;;;9.15;5.05;;;14.70;99.90;;;14.90;93.40;101582.41;5111975;28;20044;-70
2021/12/31 03:53:24;;;;;;;9.55;5.32;;;14.70;99.90;;;14.84;93.42;101586.91;5111798;28;20039;-71
2021/12/31 03:55:53;;;;;;;12.00;6.20;;;14.70;99.90;;;14.94;93.39;101593.91;5112037;28;20063;-71
2021/12/31 03:58:22;;;;;;;9.75;5.28;;;14.70;99.90;;;14.85;92.91;101572.69;5111919;28;20470;-71
2021/12/31 04:00:50;;;;;;;11.15;5.38;;;14.70;99.90;;;14.98;92.56;101587.66;5096521;28;20066;-70
2021/12/31 04:03:19;;;;;;;8.05;4.88;;;14.70;99.90;;;14.42;92.47;101493.25;5119370;28;20059;-71
2021/12/31 04:05:49;;;;;;;8.25;5.15;;;14.70;99.90;;;14.83;92.55;101564.72;5118995;28;20047;-71
2021/12/31 04:08:18;;;;;;;8.80;5.25;;;14.70;99.90;;;14.97;92.31;101580.56;5119229;28;20047;-71
2021/12/31 04:10:46;;;;;;;7.85;5.20;;;14.70;99.90;;;14.86;92.06;101570.03;5118714;28;20078;-70
2021/12/31 04:13:16;;;;;;;7.53;5.40;;;14.70;99.90;;;14.88;92.43;101573.56;5118572;28;20115;-70
2021/12/31 04:15:45;;;;;;;7.50;4.97;;;14.70;99.90;;;14.95;92.24;101574.34;5100465;28;20047;-71
2021/12/31 04:18:13;;;;;;;8.20;4.40;;;14.70;99.90;;;14.99;91.95;101581.41;5118843;28;20053;-71
2021/12/31 04:20:44;;;;;;;8.98;5.30;;;14.70;99.90;;;14.90;91.84;101571.75;5119175;28;20094;-73
2021/12/31 04:23:26;;;;;;;7.38;4.50;;;14.70;99.90;;;14.98;91.60;101566.34;5118994;28;20044;-71
2021/12/31 04:25:56;;;;;;;9.52;4.90;;;14.70;99.90;;;14.88;91.43;101589.53;5118920;28;20043;-71
2021/12/31 04:28:28;;;;;;;8.77;5.35;;;14.70;99.90;;;14.78;91.33;101536.38;5119222;28;20070;-71
2021/12/31 04:30:57;;;;;;;8.50;5.15;;;14.70;99.90;;;14.90;91.46;101561.09;5118780;28;20055;-71
2021/12/31 04:33:26;;;;;;;8.68;5.68;;;14.70;99.90;;;14.97;91.22;101565.47;5118460;28;20078;-71
2021/12/31 04:35:54;;;;;;;8.98;5.22;;;14.70;99.90;;;14.89;91.05;101551.31;5118500;28;20438;-71
2021/12/31 04:38:22;;;;;;;9.85;5.28;;;14.70;99.90;;;14.89;90.89;101554.00;5118498;28;20393;-71
2021/12/31 04:40:51;;;;;;;7.13;4.57;;;14.70;99.90;;;14.80;90.98;101543.44;5118411;28;20188;-71
2021/12/31 04:43:19;;;;;;;9.23;5.07;;;14.60;99.90;;;14.78;90.99;101550.56;5118639;28;20043;-71
2021/12/31 04:45:49;;;;;;;10.13;5.25;;;14.50;99.90;;;14.76;91.02;101538.16;5118229;28;20069;-71
2021/12/31 04:48:18;;;;;;;8.15;5.25;;;14.50;99.90;;;14.65;90.83;101530.31;5118300;28;20047;-70
2021/12/31 04:50:46;;;;;;;7.80;4.95;;;14.50;99.90;;;14.48;91.01;101501.19;5100072;28;20047;-71
2021/12/31 04:53:15;;;;;;;6.40;4.40;;;14.40;99.90;;;14.72;90.70;101516.00;5118171;28;20077;-71
2021/12/31 04:55:44;;;;;;;9.18;5.15;;;14.50;99.90;;;13.13;90.73;101265.75;5118732;28;20118;-71
2021/12/31 04:58:12;;;;;;;9.57;5.40;;;14.40;99.90;;;14.54;90.99;101494.91;5118438;28;20151;-71
2021/12/31 05:00:41;;;;;;;7.13;5.25;;;14.40;99.90;;;14.55;90.76;101517.09;5118171;28;20043;-70
2021/12/31 05:03:12;;;;;;;6.90;4.97;;;14.40;99.90;;;14.64;90.82;101533.84;5118216;28;20043;-71
2021/12/31 05:05:40;;;;;;;;;;;14.40;99.90;;;14.53;90.61;101519.78;5118636;28;20032;-70
2021/12/31 05:08:09;;;;;;;7.57;4.95;;;14.40;99.90;;;14.59;90.63;101517.06;5118582;28;19920;-70
2021/12/31 05:10:37;;;;;;;11.73;5.47;;;14.40;99.90;;;14.54;90.69;101508.22;5118322;28;20404;-72
2021/12/31 05:13:09;;;;;;;9.43;5.53;;;14.40;99.90;;;14.49;90.99;101512.72;5114947;28;20078;-70
2021/12/31 05:15:44;;;;;;;8.88;5.00;;;14.30;99.90;;;14.55;90.76;101520.66;5115208;28;20079;-70
2021/12/31 05:18:14;;;;;;;8.85;4.95;;;14.30;99.90;;;14.64;90.36;101524.97;5114854;28;20048;-71
2021/12/31 05:20:43;;;;;;;7.15;5.00;;;14.40;99.90;;;14.50;90.69;101526.91;5114826;28;20039;-70
2021/12/31 05:23:11;;;;;;;9.35;5.00;;;14.30;99.90;;;14.54;90.74;101533.97;5115005;28;20459;-71
2021/12/31 05:25:40;;;;;;;9.48;5.47;;;14.30;99.90;;;14.47;90.81;101522.50;5114601;28;20066;-71
2021/12/31 05:28:08;;;;;;;8.90;5.53;;;14.30;99.90;;;14.51;90.77;101539.31;5114627;28;20146;-71
2021/12/31 05:30:37;;;;;;;8.13;4.95;;;14.30;99.90;;;14.47;91.04;101533.16;5114898;28;20048;-70
2021/12/31 05:33:05;;;;;;;6.95;4.90;;;14.20;99.90;;;14.43;90.85;101520.75;5114474;28;20511;-71
2021/12/31 05:35:35;;;;;;;9.38;5.45;;;14.20;99.90;;;14.50;90.92;101521.59;5114505;28;20445;-70
2021/12/31 05:38:03;;;;;;;7.43;5.40;;;14.20;99.90;;;14.41;90.90;101519.88;5114660;28;20078;-70
2021/12/31 05:40:32;;;;;;;9.07;5.72;;;14.20;99.90;;;14.34;91.12;101526.19;5114422;28;20320;-70
2021/12/31 05:43:00;;;;;;;10.02;5.82;;;14.20;99.90;;;14.35;91.05;101533.25;5114549;28;20047;-71
2021/12/31 05:45:29;;;;;;;7.40;4.88;;;14.10;99.90;;;14.42;90.66;101529.63;5114592;28;20467;-70
2021/12/31 05:48:18;;;;;;;9.77;5.63;;;14.20;99.90;;;14.32;90.86;101535.94;5114424;28;20460;-71
2021/12/31 05:50:47;;;;;;;8.00;5.40;;;14.10;99.90;;;14.29;90.92;101536.84;5114307;28;20048;-71
2021/12/31 05:53:16;;;;;;;8.83;4.83;;;14.10;99.90;;;14.37;90.90;101543.00;5114544;28;20079;-73
2021/12/31 05:55:44;;;;;;;7.35;4.85;;;14.10;99.90;;;14.26;90.43;101538.63;5096197;28;20471;-70
2021/12/31 05:58:13;;;;;;;9.05;5.00;;;14.10;99.90;;;14.24;91.22;101537.75;5114380;28;20073;-71
2021/12/31 06:00:41;;;;;;;9.88;5.63;;;14.00;99.90;;;14.26;90.79;101534.19;5114205;28;20048;-71
2021/12/31 06:03:10;;;;;;;9.02;4.90;;;14.10;99.90;;;14.27;90.71;101535.97;5092472;28;20048;-70
2021/12/31 06:05:39;;;;;;;8.70;5.68;;;14.10;99.90;;;14.25;90.47;101520.88;5093777;28;20118;-70
2021/12/31 06:08:09;;;;;;;10.25;5.60;;;14.10;99.90;;;14.15;90.94;101501.47;5094209;28;20407;-71
2021/12/31 06:10:41;;;;;;;7.65;5.43;;;14.00;99.90;;;14.29;90.65;101517.34;5093762;28;20044;-71
2021/12/31 06:13:11;;;;;;;9.05;5.65;;;14.00;99.90;;;14.21;90.36;101498.75;5092559;28;20048;-70
2021/12/31 06:15:42;;;;;;;8.10;5.35;;;14.00;99.90;;;14.13;90.77;101494.41;5093964;28;20043;-71
2021/12/31 06:18:11;;;;;;;;;;;14.00;99.90;;;14.17;90.79;101490.78;5094004;28;20040;-71
2021/12/31 06:20:41;;;;;;;8.68;5.40;;;14.00;99.90;;;14.15;90.93;101485.50;5093363;28;19948;-70
2021/12/31 06:23:11;;;;;;;7.88;5.80;;;14.00;99.90;;;14.21;91.00;101480.13;5093094;28;20068;-71
2021/12/31 06:25:40;;;;;;;9.05;5.20;;;13.90;99.90;;;14.20;91.01;101466.84;5091180;28;20052;-71
2021/12/31 06:28:08;;;;;;;10.55;6.15;;;13.90;99.90;;;14.19;90.61;101475.69;5093071;28;20076;-72
2021/12/31 06:30:37;;;;;;;9.90;5.60;;;14.00;99.90;;;14.26;90.44;101477.44;5093164;28;20439;-71
2021/12/31 06:33:05;;;;;;;11.68;6.22;;;14.00;99.90;;;14.21;90.49;101472.13;5093280;28;20127;-71
2021/12/31 06:35:34;;;;;;;8.45;6.82;;;14.00;99.90;;;14.30;90.35;101466.75;5092878;28;20056;-71
2021/12/31 06:38:03;;;;;;;8.82;5.95;;;14.10;99.90;;;14.22;90.19;101467.72;5092904;28;20036;-70
2021/12/31 06:40:35;;;;;;;11.30;6.57;;;14.10;99.90;;;14.25;90.24;101484.50;5093080;28;20449;-71
2021/12/31 06:43:04;;;;;;;8.20;5.97;;;14.00;99.90;;;14.08;90.59;101453.63;5093016;28;20097;-71
2021/12/31 06:45:32;;;;;;;11.43;5.63;;;14.00;99.90;;;14.21;90.33;101487.22;5093054;28;20401;-71
2021/12/31 06:48:01;;;;;;;10.18;6.85;;;14.00;99.90;;;14.25;90.58;101492.50;5092719;28;20090;-71
2021/12/31 06:50:30;;;;;;;6.88;5.88;;;14.00;99.90;;;14.15;90.07;101527.22;5092854;28;20057;-72
2021/12/31 06:53:01;;;;;;;9.13;5.88;;;13.90;99.90;;;14.09;90.58;101492.66;5092994;28;20048;-70
2021/12/31 06:55:30;;;;;;;;;;;13.90;99.90;;;14.02;91.17;101529.06;5092989;28;20054;-70
2021/12/31 06:58:00;;;;;;;8.95;5.97;;;13.80;99.90;;;14.04;91.29;101513.09;5092492;28;19920;-70
2021/12/31 07:00:29;;;;;;;9.15;5.75;;;13.80;99.90;;;13.98;91.43;101503.38;5092559;28;20117;-71
2021/12/31 07:03:06;;;;;;;10.88;6.25;;;13.80;99.90;;;13.99;91.55;101512.25;5107026;28;20048;-71
2021/12/31 07:05:35;;;;;;;8.85;6.07;;;13.80;99.90;;;13.79;91.50;101476.94;5113081;28;20047;-70
2021/12/31 07:08:04;;;;;;;10.23;6.18;;;13.80;99.90;;;13.87;91.60;101499.03;5113279;28;20050;-70
2021/12/31 07:10:34;;;;;;;8.82;5.90;;;13.70;99.90;;;13.88;91.90;101524.75;5094872;28;20043;-85
2021/12/31 07:13:10;;;;;;;9.48;6.10;;;13.70;99.90;;;13.84;92.11;101520.34;5094843;28;20074;-73
2021/12/31 07:15:41;;;;;;;10.77;6.18;;;13.60;99.90;;;13.84;92.07;101521.22;5094839;28;20047;-73
2021/12/31 07:18:10;;;;;;;9.25;5.57;;;13.60;99.90;;;13.82;91.93;101530.13;5112651;28;20330;-68
2021/12/31 07:20:38;;;;;;;7.32;5.30;;;13.60;99.90;;;13.81;92.05;101528.34;5094303;28;20134;-69
2021/12/31 07:23:09;;;;;;;8.40;5.88;;;13.60;99.90;;;13.73;92.31;101541.69;5112253;28;20104;-69
2021/12/31 07:25:39;;;;;;;7.22;6.03;;;13.60;99.90;;;13.79;92.13;101554.06;5112841;28;20132;-68
2021/12/31 07:28:10;;;;;;;11.70;6.37;;;13.60;99.90;;;13.82;92.07;101535.44;5112469;28;20482;-68
2021/12/31 07:30:39;;;;;;;8.07;5.90;;;13.60;99.90;;;13.88;92.04;101514.97;5112463;28;20078;-69
2021/12/31 07:33:15;;;;;;;9.48;6.47;;;13.60;99.90;;;13.86;91.87;101531.88;5112040;28;20437;-70
2021/12/31 07:35:44;;;;;;;9.07;5.88;;;13.60;99.90;;;13.85;91.81;101509.69;5093431;28;20051;-70
2021/12/31 07:38:19;;;;;;;6.68;5.88;;;13.60;99.90;;;13.85;91.57;101496.41;5112276;28;20074;-69
2021/12/31 07:40:50;;;;;;;7.90;5.57;;;13.70;99.90;;;13.88;91.49;101483.06;5112764;28;20071;-69
2021/12/31 07:43:22;;;;;;;9.23;5.50;;;13.70;99.90;;;13.96;91.36;101498.97;5112131;28;20044;-68
2021/12/31 07:45:51;;;;;;;8.45;6.28;;;13.80;99.90;;;13.73;91.47;101482.31;5093743;28;20043;-68
2021/12/31 07:48:20;;;;;;;7.53;5.40;;;13.70;99.90;;;13.85;91.59;101508.81;5112046;28;20051;-68
2021/12/31 07:50:49;;;;;;;11.57;6.57;;;13.60;99.90;;;13.81;91.82;101523.03;5112189;28;20047;-68
2021/12/31 07:53:18;;;;;;;9.23;6.30;;;13.60;99.90;;;13.87;91.53;101517.66;5111898;28;20043;-68
2021/12/31 07:55:46;;;;;;;10.23;5.90;;;13.60;99.90;;;13.81;91.32;101536.31;5111892;28;20040;-68
2021/12/31 07:58:15;;;;;;;8.48;5.50;;;13.60;99.90;;;13.82;91.46;101511.50;5112185;28;20105;-69
2021/12/31 08:00:45;;;;;;;8.73;5.97;;;13.60;99.90;;;13.91;91.34;101517.63;5111861;28;20105;-67
2021/12/31 08:03:15;;;;;;;;;;;13.70;99.90;;;13.91;91.56;101516.75;5093899;28;20112;-69
2021/12/31 08:05:44;;;;;;;7.53;5.55;;;13.70;99.90;;;13.96;90.86;101518.47;5110315;28;19942;-68
2021/12/31 08:08:13;;;;;;;10.43;6.28;;;13.70;99.90;;;13.79;91.44;101512.41;5111716;28;20043;-67
2021/12/31 08:10:42;;;;;;;11.52;6.10;;;13.70;99.90;;;13.87;91.43;101523.88;5111667;28;20116;-68
2021/12/31 08:13:27;;;;;;;6.45;5.70;;;13.70;99.90;;;13.79;91.48;101527.47;5111798;28;20046;-67
2021/12/31 08:15:56;;;;;;;10.23;6.10;;;13.60;99.90;;;13.79;91.70;101539.00;5093513;28;20134;-67
2021/12/31 08:18:25;;;;;;;10.38;6.10;;;13.60;99.90;;;13.79;91.77;101562.03;5111840;28;20063;-66
2021/12/31 08:20:53;;;;;;;10.40;5.95;;;13.60;99.90;;;13.81;91.79;101531.00;5111635;28;20050;-69
2021/12/31 08:23:22;;;;;;;9.23;5.70;;;13.60;99.90;;;13.66;91.80;101526.69;5111710;28;20043;-69
2021/12/31 08:25:51;;;;;;;9.88;6.68;;;13.60;99.90;;;13.85;91.78;101541.63;5111589;28;20082;-69
2021/12/31 08:28:19;;;;;;;8.90;6.07;;;13.70;99.90;;;13.93;91.40;101533.56;5093417;28;20063;-69
2021/12/31 08:30:48;;;;;;;9.05;6.07;;;13.70;99.90;;;13.86;91.27;101527.41;5111995;28;20043;-69
2021/12/31 08:33:18;;;;;;;9.93;5.95;;;13.70;99.90;;;13.77;91.24;101506.22;5111692;28;20465;-73
2021/12/31 08:35:46;;;;;;;9.03;6.97;;;13.70;99.90;;;13.81;91.32;101521.25;5111984;28;20044;-69
2021/12/31 08:38:15;;;;;;;8.80;6.45;;;13.60;99.90;;;13.81;91.41;101526.56;5111630;28;20051;-68
2021/12/31 08:40:43;;;;;;;10.55;6.30;;;13.60;99.90;;;13.75;91.43;101515.09;5111634;28;20488;-70
2021/12/31 08:43:12;;;;;;;7.55;5.40;;;13.60;99.90;;;13.76;91.44;101547.00;5111677;28;20067;-71
2021/12/31 08:45:40;;;;;;;8.82;6.25;;;13.50;99.90;;;13.83;91.61;101538.09;5111447;28;20052;-71
2021/12/31 08:48:09;;;;;;;6.95;5.40;;;13.60;99.90;;;13.80;91.70;101537.22;5095238;28;20116;-68
2021/12/31 08:50:39;;;;;;;8.88;5.95;;;13.60;99.90;;;13.74;91.81;101546.13;5115573;28;20122;-68
2021/12/31 08:53:08;;;;;;;8.80;6.30;;;13.60;99.90;;;13.76;91.64;101544.34;5097499;28;20047;-68
2021/12/31 08:55:37;;;;;;;9.98;5.68;;;13.60;99.90;;;13.48;91.92;101503.75;5115413;28;20114;-68
2021/12/31 08:58:06;;;;;;;8.23;6.50;;;13.50;99.90;;;13.68;92.05;101538.19;5115799;28;20118;-68
2021/12/31 09:00:36;;;;;;;9.82;5.75;;;13.50;99.90;;;13.65;91.99;101521.34;5115904;28;20127;-70
2021/12/31 09:03:05;;;;;;;8.55;5.70;;;13.50;99.90;;;13.75;91.70;101542.56;5115305;28;20077;-70
2021/12/31 09:05:34;;;;;;;7.28;6.00;;;13.50;99.90;;;13.84;91.81;101546.94;5097029;28;20093;-71
2021/12/31 09:08:04;;;;;;;9.75;5.63;;;13.60;99.90;;;13.75;91.60;101520.41;5115047;28;20039;-69
2021/12/31 09:10:33;;;;;;;11.90;6.15;;;13.60;99.90;;;13.78;91.43;101555.81;5115550;28;20051;-70
2021/12/31 09:13:01;;;;;;;8.55;5.55;;;13.50;99.90;;;13.65;92.05;101561.22;5114802;28;20108;-71
2021/12/31 09:15:30;;;;;;;8.52;6.32;;;13.50;99.90;;;13.72;91.79;101565.63;5114697;28;20044;-70
2021/12/31 09:18:00;;;;;;;7.40;5.70;;;13.60;99.90;;;13.73;91.63;101581.56;5114952;28;20040;-70
2021/12/31 09:20:29;;;;;;;9.02;6.28;;;13.50;99.90;;;13.64;91.69;101573.66;5096922;28;20070;-70
2021/12/31 09:22:57;;;;;;;6.70;5.38;;;13.50;99.90;;;13.72;91.66;101574.50;5115125;28;20449;-71
2021/12/31 09:25:27;;;;;;;12.48;6.03;;;13.50;99.90;;;13.69;91.54;101566.53;5114742;28;20066;-70
2021/12/31 09:27:56;;;;;;;10.57;5.75;;;13.50;99.90;;;13.75;91.99;101554.97;5114778;28;20111;-72
2021/12/31 09:30:25;;;;;;;10.55;5.90;;;13.50;99.90;;;13.66;91.47;101539.97;5114409;28;20039;-71
2021/12/31 09:32:54;;;;;;;8.82;5.30;;;13.60;99.90;;;13.74;92.30;101570.06;5114346;28;20055;-70
2021/12/31 09:35:22;;;;;;;8.30;6.00;;;13.60;99.90;;;13.82;91.81;101618.75;5096070;28;20517;-67
2021/12/31 09:37:51;;;;;;;8.70;6.10;;;13.70;99.90;;;13.89;92.29;101608.97;5114347;28;20063;-68
2021/12/31 09:40:20;;;;;;;10.45;6.55;;;13.70;99.90;;;13.88;92.19;101567.31;5114177;28;20469;-67
2021/12/31 09:43:04;;;;;;;10.38;6.38;;;13.80;99.90;;;14.00;91.50;101593.81;5114230;28;20048;-69
2021/12/31 09:45:33;;;;;;;14.32;6.40;;;13.80;99.90;;;14.12;91.37;101593.72;5114539;28;20039;-69
2021/12/31 09:48:08;;;;;;;12.45;6.65;;;13.90;99.90;;;14.04;90.84;101568.94;5114706;28;20051;-75
2021/12/31 09:50:38;;;;;;;9.50;6.22;;;13.90;99.90;;;14.08;91.02;101563.59;5114338;28;20051;-71
2021/12/31 09:53:07;;;;;;;12.07;6.20;;;13.90;99.90;;;14.07;90.81;101558.31;5114030;28;20043;-70
2021/12/31 09:55:37;;;;;;;7.85;5.95;;;13.80;99.90;;;14.08;91.00;101582.22;5113925;28;20048;-70
2021/12/31 09:58:08;;;;;;;;;;;13.80;99.90;;;14.14;90.51;101595.50;5095662;28;20054;-69
2021/12/31 10:00:41;;;;;;;13.05;6.78;;;13.90;99.90;;;14.05;90.90;101600.84;5114523;28;19927;-70
2021/12/31 10:03:12;;;;;;;8.75;6.45;;;13.90;99.90;;;14.10;90.98;101617.69;5114165;28;20052;-69
2021/12/31 10:05:42;;;;;;;10.40;6.70;;;13.90;99.90;;;14.08;90.94;101600.84;5113750;28;20051;-68
2021/12/31 10:08:16;;;;;;;10.95;6.25;;;13.90;99.90;;;14.14;90.86;101614.13;5113535;28;20079;-71
2021/12/31 10:11:02;;;;;;;11.40;6.32;;;13.90;99.90;;;14.11;90.82;101616.78;5113669;28;20054;-71
2021/12/31 10:13:33;;;;;;;9.20;6.70;;;13.90;99.90;;;14.02;90.55;101600.00;5113781;28;20104;-71
2021/12/31 10:16:02;;;;;;;8.27;6.13;;;13.90;99.90;;;14.10;90.38;101568.91;5095549;28;20047;-70
2021/12/31 10:18:33;;;;;;;8.65;6.50;;;13.90;99.90;;;14.09;89.90;101562.69;5113554;28;20040;-70
2021/12/31 10:21:02;;;;;;;;;;;13.90;99.90;;;14.16;90.10;101559.13;5114016;28;20047;-70